Time;durP1;ratioP1;P1;durP2;ratioP2;P2;SDS_P1;SDS_P2;PMS_P1;PMS_P2;Temp;Humidity;BMP_temperature;BMP_pressure;BME280_temperature;BME280_humidity;BME280_pressure;Samples;Min_cycle;Max_cycle;Signal;HPM_P1;HPM_P2
2022/05/26 00:01:59;;;;;;;20.63;10.93;;;13.90;99.90;;;;;;5032828;28;20041;-61
2022/05/26 00:04:26;;;;;;;23.73;11.10;;;13.90;99.90;;;;;;5016513;28;20049;-61
2022/05/26 00:06:52;;;;;;;21.70;11.00;;;13.90;99.90;;;;;;5026594;28;20524;-61
2022/05/26 00:09:18;;;;;;;18.80;11.60;;;13.90;99.90;;;;;;5032513;28;20045;-61
2022/05/26 00:11:43;;;;;;;18.33;10.82;;;13.90;99.90;;;;;;5023115;28;20044;-61
2022/05/26 00:14:10;;;;;;;23.40;12.30;;;13.90;99.90;;;;;;5025787;28;20045;-61
2022/05/26 00:16:37;;;;;;;22.73;12.27;;;14.00;99.90;;;;;;5032950;28;20078;-61
2022/05/26 00:19:04;;;;;;;21.05;11.82;;;14.00;99.90;;;;;;5029723;28;20049;-60
2022/05/26 00:21:29;;;;;;;21.48;12.45;;;14.00;99.90;;;;;;5024414;28;20041;-61
2022/05/26 00:23:56;;;;;;;22.27;12.98;;;14.00;99.90;;;;;;5032499;28;20477;-61
2022/05/26 00:26:22;;;;;;;25.20;12.52;;;14.00;99.90;;;;;;5015606;28;20049;-60
2022/05/26 00:28:47;;;;;;;26.02;13.32;;;14.10;99.90;;;;;;5023884;28;20093;-61
2022/05/26 00:31:13;;;;;;;21.65;12.20;;;14.00;99.90;;;;;;5030896;28;20449;-61
2022/05/26 00:33:38;;;;;;;26.98;13.55;;;14.00;99.90;;;;;;5032297;28;20520;-61
2022/05/26 00:36:06;;;;;;;24.73;13.27;;;13.90;99.90;;;;;;5028357;28;20478;-61
2022/05/26 00:38:32;;;;;;;22.77;11.98;;;13.90;99.90;;;;;;5012979;28;20563;-60
2022/05/26 00:41:07;;;;;;;24.55;12.27;;;13.90;99.90;;;;;;5032012;28;20049;-61
2022/05/26 00:43:34;;;;;;;26.25;12.55;;;13.90;99.90;;;;;;5029652;28;20485;-61
2022/05/26 00:46:06;;;;;;;27.60;14.07;;;13.90;99.90;;;;;;5015604;28;20083;-61
2022/05/26 00:48:42;;;;;;;29.60;13.45;;;13.90;99.90;;;;;;5031171;28;20049;-61
2022/05/26 00:51:11;;;;;;;28.75;14.27;;;13.90;99.90;;;;;;5032340;28;20037;-61
2022/05/26 00:53:46;;;;;;;24.70;13.52;;;13.90;99.90;;;;;;5019717;28;20485;-61
2022/05/26 00:56:19;;;;;;;29.23;12.95;;;13.90;99.90;;;;;;5028109;28;20045;-61
2022/05/26 00:58:49;;;;;;;29.30;14.32;;;13.90;99.90;;;;;;5024855;28;20045;-61
2022/05/26 01:01:16;;;;;;;29.38;13.50;;;13.90;99.90;;;;;;5032562;28;20041;-61
2022/05/26 01:03:47;;;;;;;25.67;14.18;;;13.90;99.90;;;;;;5020900;28;20037;-61
2022/05/26 01:06:16;;;;;;;;;;;13.90;99.90;;;;;;5032047;28;20037;-61
2022/05/26 01:08:54;;;;;;;24.60;12.85;;;13.90;99.90;;;;;;5031602;28;19923;-61
2022/05/26 01:11:22;;;;;;;26.65;13.82;;;13.90;99.90;;;;;;5023971;28;20081;-61
2022/05/26 01:13:52;;;;;;;28.20;13.57;;;13.90;99.90;;;;;;5031929;28;20037;-61
2022/05/26 01:16:41;;;;;;;27.35;14.40;;;13.90;99.90;;;;;;5032242;28;20045;-61
2022/05/26 01:19:32;;;;;;;29.10;14.02;;;13.90;99.90;;;;;;5028122;28;20042;-61
2022/05/26 01:22:39;;;;;;;31.90;14.40;;;13.80;99.90;;;;;;5028818;28;20046;-61
2022/05/26 01:25:13;;;;;;;29.25;14.90;;;13.80;99.90;;;;;;5031308;28;20037;-60
2022/05/26 01:27:44;;;;;;;34.33;14.23;;;13.70;99.90;;;;;;5019526;28;20493;-61
2022/05/26 01:30:45;;;;;;;29.67;15.10;;;13.60;99.90;;;;;;5009571;28;20477;-61
2022/05/26 01:33:17;;;;;;;33.88;16.08;;;13.60;99.90;;;;;;5012336;28;20053;-61
2022/05/26 01:36:08;;;;;;;28.92;14.82;;;13.60;99.90;;;;;;5018819;28;20060;-61
2022/05/26 01:38:45;;;;;;;32.80;15.70;;;13.60;99.90;;;;;;5030831;28;20033;-61
2022/05/26 01:41:34;;;;;;;34.35;15.82;;;13.60;99.90;;;;;;5031537;28;20456;-61
2022/05/26 01:44:33;;;;;;;35.42;16.38;;;13.60;99.90;;;;;;5016714;28;20049;-61
2022/05/26 01:47:04;;;;;;;32.97;16.05;;;13.60;99.90;;;;;;5025824;28;20049;-61
2022/05/26 01:49:43;;;;;;;34.17;15.90;;;13.60;99.90;;;;;;5031567;28;20509;-60
2022/05/26 01:52:35;;;;;;;36.78;17.38;;;13.60;99.90;;;;;;5021447;28;20041;-61
2022/05/26 01:55:18;;;;;;;30.92;15.60;;;13.60;99.90;;;;;;5025531;28;20493;-60
2022/05/26 01:57:53;;;;;;;32.83;16.52;;;13.60;99.90;;;;;;5031569;28;20402;-61
2022/05/26 02:00:20;;;;;;;35.25;15.27;;;13.70;99.90;;;;;;5026601;28;20124;-61
2022/05/26 02:03:14;;;;;;;29.40;15.13;;;13.60;99.90;;;;;;5012294;28;20061;-61
2022/05/26 02:05:47;;;;;;;27.77;15.68;;;13.70;99.90;;;;;;5029574;28;20053;-61
2022/05/26 02:08:22;;;;;;;35.25;15.68;;;13.60;99.90;;;;;;5008899;28;20132;-61
2022/05/26 02:10:55;;;;;;;36.90;16.30;;;13.60;99.90;;;;;;5023399;28;20045;-61
2022/05/26 02:13:29;;;;;;;33.58;15.63;;;13.60;99.90;;;;;;5031182;28;20121;-61
2022/05/26 02:16:00;;;;;;;36.42;16.55;;;13.60;99.90;;;;;;5017660;28;20041;-61
2022/05/26 02:18:33;;;;;;;30.98;16.30;;;13.60;99.90;;;;;;5021126;28;20053;-61
2022/05/26 02:21:04;;;;;;;38.17;16.88;;;13.70;99.90;;;;;;5030518;28;20077;-61
2022/05/26 02:23:49;;;;;;;35.60;17.40;;;13.60;99.90;;;;;;5031397;28;20037;-60
2022/05/26 02:26:15;;;;;;;35.95;15.82;;;13.60;99.90;;;;;;5019749;28;20037;-59
2022/05/26 02:31:28;;;;;;;35.05;16.33;;;13.70;99.90;;;;;;5028822;28;20297;-61
2022/05/26 02:33:57;;;;;;;39.63;16.63;;;13.70;99.90;;;;;;5026207;28;20140;-61
2022/05/26 02:36:24;;;;;;;33.75;15.65;;;13.70;99.90;;;;;;5023615;28;20132;-61
2022/05/26 02:38:50;;;;;;;37.67;16.42;;;13.70;99.90;;;;;;5030158;28;20758;-61
2022/05/26 02:41:16;;;;;;;42.10;16.38;;;13.70;99.90;;;;;;5024289;28;20098;-61
2022/05/26 02:43:42;;;;;;;38.08;16.67;;;13.70;99.90;;;;;;5019638;28;20029;-61
2022/05/26 02:46:28;;;;;;;35.10;17.25;;;13.80;99.90;;;;;;5027399;28;20045;-61
2022/05/26 02:49:12;;;;;;;36.13;16.67;;;13.80;99.90;;;;;;5019315;28;20081;-61
2022/05/26 02:52:01;;;;;;;36.67;17.15;;;13.90;99.90;;;;;;5024528;28;20036;-61
2022/05/26 02:54:41;;;;;;;36.88;16.88;;;13.90;99.90;;;;;;5030563;28;20044;-60
2022/05/26 02:57:33;;;;;;;41.92;16.85;;;13.90;99.90;;;;;;5030583;28;20519;-61
2022/05/26 03:00:05;;;;;;;38.70;16.02;;;13.90;99.90;;;;;;5021555;28;20053;-61
2022/05/26 03:03:05;;;;;;;38.72;16.38;;;13.90;99.90;;;;;;5028681;28;20052;-61
2022/05/26 03:05:48;;;;;;;36.13;15.60;;;14.00;99.90;;;;;;5030403;28;20076;-61
2022/05/26 03:08:16;;;;;;;47.85;18.05;;;14.00;99.90;;;;;;5024111;28;20081;-61
2022/05/26 03:10:48;;;;;;;42.70;17.13;;;14.00;99.90;;;;;;5026049;28;20117;-61
2022/05/26 03:13:13;;;;;;;41.95;17.15;;;14.00;99.90;;;;;;5034765;28;20037;-61
2022/05/26 03:15:40;;;;;;;43.55;16.77;;;14.10;99.90;;;;;;5026894;28;20037;-63
2022/05/26 03:18:06;;;;;;;37.72;15.10;;;14.10;99.90;;;;;;5015836;28;20046;-63
2022/05/26 03:20:32;;;;;;;38.65;15.82;;;14.10;99.90;;;;;;5033834;28;20385;-63
2022/05/26 03:22:58;;;;;;;38.20;15.40;;;14.10;99.90;;;;;;5023956;28;20051;-63
2022/05/26 03:25:23;;;;;;;38.47;15.38;;;14.20;99.90;;;;;;5020209;28;20033;-63
2022/05/26 03:27:49;;;;;;;44.92;15.35;;;14.10;99.90;;;;;;5033902;28;20516;-63
2022/05/26 03:30:15;;;;;;;41.83;15.07;;;14.20;99.90;;;;;;5034107;28;20443;-63
2022/05/26 03:32:45;;;;;;;47.35;16.33;;;14.20;99.90;;;;;;5025129;28;20033;-63
2022/05/26 03:40:55;;;;;;;44.90;14.65;;;14.10;99.90;;;;;;5021302;28;20120;-63
2022/05/26 03:43:34;;;;;;;38.95;14.18;;;14.10;99.90;;;;;;4994601;28;20545;-63
2022/05/26 03:46:01;;;;;;;42.78;14.40;;;14.20;99.90;;;;;;5026348;28;20049;-63
2022/05/26 03:48:27;;;;;;;37.63;14.23;;;14.10;99.90;;;;;;5022866;28;20044;-63
2022/05/26 03:50:52;;;;;;;41.38;14.15;;;14.20;99.90;;;;;;5028381;28;20053;-63
2022/05/26 03:53:18;;;;;;;32.63;12.50;;;14.10;99.90;;;;;;5032942;28;20037;-63
2022/05/26 03:55:43;;;;;;;38.65;12.82;;;14.10;99.90;;;;;;5025413;28;20033;-62
2022/05/26 03:58:09;;;;;;;36.88;12.50;;;14.10;99.90;;;;;;5024321;28;20091;-63
2022/05/26 04:00:35;;;;;;;36.38;12.18;;;14.10;99.90;;;;;;5032551;28;20056;-63
2022/05/26 04:03:01;;;;;;;38.03;11.80;;;14.10;99.90;;;;;;5033024;28;20068;-63
2022/05/26 04:05:27;;;;;;;32.60;12.45;;;14.10;99.90;;;;;;5027447;28;20041;-63
2022/05/26 04:07:53;;;;;;;34.88;11.98;;;14.10;99.90;;;;;;5032415;28;20096;-63
2022/05/26 04:10:19;;;;;;;37.75;12.27;;;14.10;99.90;;;;;;5031683;28;20041;-63
2022/05/26 04:12:46;;;;;;;38.17;11.90;;;14.10;99.90;;;;;;5015922;28;20073;-63
2022/05/26 04:15:14;;;;;;;33.28;11.55;;;14.20;99.90;;;;;;5019811;28;20044;-63
2022/05/26 04:17:39;;;;;;;39.47;11.43;;;14.20;99.90;;;;;;5029903;28;20064;-63
2022/05/26 04:20:07;;;;;;;39.80;11.50;;;14.20;99.90;;;;;;5026839;28;20064;-63
2022/05/26 04:22:33;;;;;;;35.03;10.07;;;14.20;99.90;;;;;;5022456;28;20049;-63
2022/05/26 04:24:59;;;;;;;36.03;9.77;;;14.20;99.90;;;;;;5032535;28;20041;-63
2022/05/26 04:27:28;;;;;;;31.88;9.77;;;14.20;99.90;;;;;;5033173;28;20041;-63
2022/05/26 04:29:54;;;;;;;25.23;9.13;;;14.30;99.90;;;;;;5025932;28;20046;-63
2022/05/26 04:32:21;;;;;;;30.58;9.27;;;14.30;99.90;;;;;;5030552;28;20103;-63
2022/05/26 04:34:48;;;;;;;22.27;8.68;;;14.30;99.90;;;;;;5045622;28;20047;-63
2022/05/26 04:37:15;;;;;;;29.45;8.30;;;14.20;99.90;;;;;;5009926;28;20049;-62
2022/05/26 04:39:41;;;;;;;26.85;8.10;;;14.20;99.90;;;;;;5030582;28;20456;-63
2022/05/26 04:42:07;;;;;;;21.00;6.18;;;14.20;99.90;;;;;;5032906;28;20053;-63
2022/05/26 04:44:35;;;;;;;19.83;5.53;;;14.20;99.90;;;;;;5026655;28;20045;-63
2022/05/26 04:47:01;;;;;;;20.63;5.20;;;14.30;99.90;;;;;;5022972;28;20048;-62
2022/05/26 04:49:27;;;;;;;16.23;5.03;;;14.30;99.90;;;;;;5026376;28;20045;-62
2022/05/26 04:51:53;;;;;;;16.42;4.80;;;14.30;99.90;;;;;;5031673;28;20037;-62
2022/05/26 04:54:19;;;;;;;14.20;4.22;;;14.30;99.90;;;;;;5022513;28;20052;-62
2022/05/26 04:56:45;;;;;;;16.08;3.90;;;14.30;99.90;;;;;;5017747;28;20116;-62
2022/05/26 04:59:11;;;;;;;17.58;4.72;;;14.30;99.90;;;;;;5022332;28;20490;-63
2022/05/26 05:01:36;;;;;;;9.98;3.53;;;14.30;99.90;;;;;;5022127;28;20038;-63
2022/05/26 05:04:02;;;;;;;16.23;3.75;;;14.40;99.90;;;;;;5026398;28;20052;-63
2022/05/26 05:06:28;;;;;;;12.93;3.40;;;14.40;99.90;;;;;;5024803;28;20045;-63
2022/05/26 05:08:54;;;;;;;14.32;3.55;;;14.40;99.90;;;;;;5030758;28;20044;-63
2022/05/26 05:11:20;;;;;;;9.73;3.03;;;14.40;99.90;;;;;;5016602;28;20409;-63
2022/05/26 05:13:46;;;;;;;11.65;3.65;;;14.50;99.90;;;;;;5020618;28;20505;-63
2022/05/26 05:16:30;;;;;;;10.18;3.15;;;14.50;99.90;;;;;;5022849;28;20034;-63
2022/05/26 05:18:57;;;;;;;12.88;3.55;;;14.60;99.90;;;;;;5020338;28;20034;-63
2022/05/26 05:21:54;;;;;;;13.95;3.70;;;14.80;99.90;;;;;;5021356;28;20043;-63
2022/05/26 05:24:27;;;;;;;12.55;3.72;;;14.90;99.90;;;;;;5021673;28;20049;-63
2022/05/26 05:26:58;;;;;;;12.85;4.05;;;15.00;99.90;;;;;;5028779;28;20049;-63
2022/05/26 05:29:28;;;;;;;13.15;3.75;;;15.10;99.90;;;;;;5025531;28;20095;-62
2022/05/26 05:31:59;;;;;;;19.25;4.00;;;15.10;99.90;;;;;;5031146;28;20058;-63
2022/05/26 05:34:35;;;;;;;13.02;4.07;;;15.20;99.90;;;;;;5032013;28;20524;-63
2022/05/26 05:37:01;;;;;;;11.50;3.58;;;15.20;99.90;;;;;;5020247;28;20045;-63
2022/05/26 05:39:26;;;;;;;13.00;3.65;;;15.30;99.90;;;;;;5027742;28;20051;-63
2022/05/26 05:41:54;;;;;;;9.77;3.15;;;15.30;99.90;;;;;;5028161;28;20041;-63
2022/05/26 05:44:20;;;;;;;13.48;3.15;;;15.30;99.90;;;;;;5029130;28;20049;-62
2022/05/26 05:46:57;;;;;;;7.63;2.90;;;15.30;99.90;;;;;;5014167;28;20041;-62
2022/05/26 05:49:25;;;;;;;10.77;2.63;;;15.30;99.90;;;;;;5025112;28;20104;-62
2022/05/26 05:51:51;;;;;;;15.32;3.33;;;15.30;99.90;;;;;;5028234;28;20038;-62
2022/05/26 05:54:18;;;;;;;11.18;2.88;;;15.30;99.90;;;;;;5015195;28;20038;-63
2022/05/26 05:56:45;;;;;;;7.68;2.72;;;15.30;99.90;;;;;;5028020;28;20144;-63
2022/05/26 05:59:11;;;;;;;12.75;3.05;;;15.30;99.90;;;;;;5028031;28;20531;-63
2022/05/26 06:01:36;;;;;;;9.82;2.58;;;15.40;99.90;;;;;;5015331;28;20025;-63
2022/05/26 06:04:02;;;;;;;12.02;3.17;;;15.40;99.90;;;;;;5025573;28;20106;-64
2022/05/26 06:06:35;;;;;;;16.80;3.00;;;15.40;99.90;;;;;;5019258;28;20029;-63
2022/05/26 06:09:00;;;;;;;10.23;3.15;;;15.40;99.90;;;;;;5006492;28;20040;-62
2022/05/26 06:11:26;;;;;;;12.30;3.35;;;15.40;99.90;;;;;;5015229;28;20050;-63
2022/05/26 06:13:51;;;;;;;17.13;3.38;;;15.50;99.90;;;;;;5027384;28;20046;-62
2022/05/26 06:16:17;;;;;;;8.57;2.65;;;15.50;99.90;;;;;;5027859;28;20038;-63
2022/05/26 06:18:42;;;;;;;10.38;2.70;;;15.50;99.90;;;;;;5016846;28;20049;-63
2022/05/26 06:21:08;;;;;;;8.25;2.42;;;15.60;99.90;;;;;;5027599;28;20037;-63
2022/05/26 06:23:33;;;;;;;7.25;2.40;;;15.60;99.90;;;;;;5027876;28;20053;-63
2022/05/26 06:25:59;;;;;;;9.38;2.40;;;15.60;99.90;;;;;;5020555;28;20116;-62
2022/05/26 06:31:10;;;;;;;6.82;2.10;;;15.90;99.90;;;;;;5029964;28;20045;-62
2022/05/26 06:39:06;;;;;;;5.88;1.70;;;16.30;99.90;;;;;;5017421;28;20042;-63
2022/05/26 06:44:17;;;;;;;7.47;1.92;;;16.40;99.90;;;;;;5019087;28;20129;-63
2022/05/26 06:46:42;;;;;;;10.23;2.00;;;16.30;99.90;;;;;;5026583;28;20034;-63
2022/05/26 06:49:08;;;;;;;5.57;1.90;;;16.30;99.90;;;;;;5015047;28;20057;-62
2022/05/26 06:51:39;;;;;;;9.38;2.00;;;16.30;99.90;;;;;;5021748;28;20037;-63
2022/05/26 06:54:07;;;;;;;6.50;1.85;;;16.40;99.90;;;;;;5025883;28;20033;-63
2022/05/26 06:56:33;;;;;;;9.00;2.28;;;16.40;99.90;;;;;;5026890;28;20029;-63
2022/05/26 06:58:59;;;;;;;7.13;2.17;;;16.40;99.90;;;;;;5014871;28;20095;-63
2022/05/26 07:01:25;;;;;;;8.25;2.38;;;16.40;99.90;;;;;;5006775;28;20045;-63
2022/05/26 07:03:50;;;;;;;10.38;2.00;;;16.60;99.90;;;;;;5020311;28;20033;-63
2022/05/26 07:06:20;;;;;;;13.45;2.85;;;16.60;99.90;;;;;;5016660;28;20115;-63
2022/05/26 07:08:47;;;;;;;7.90;2.05;;;16.70;99.90;;;;;;5024504;28;20409;-63
2022/05/26 07:11:13;;;;;;;7.03;1.80;;;16.80;99.90;;;;;;5027075;28;20129;-63
2022/05/26 07:13:39;;;;;;;6.55;1.95;;;16.80;99.90;;;;;;5033314;28;20038;-63
2022/05/26 07:16:05;;;;;;;6.60;1.85;;;16.80;99.90;;;;;;5030716;28;21085;-63
2022/05/26 07:18:31;;;;;;;7.05;1.70;;;16.80;99.90;;;;;;5011551;28;20034;-63
2022/05/26 07:20:57;;;;;;;4.82;1.60;;;16.80;99.90;;;;;;5029238;28;20052;-63
2022/05/26 07:23:23;;;;;;;4.50;1.50;;;16.80;99.90;;;;;;5027884;28;20120;-63
2022/05/26 07:25:48;;;;;;;3.92;1.50;;;16.90;99.90;;;;;;5017683;28;20037;-63
2022/05/26 07:28:14;;;;;;;3.25;1.70;;;17.10;99.90;;;;;;5017358;28;20041;-63
2022/05/26 07:30:41;;;;;;;4.78;1.42;;;17.20;99.90;;;;;;5022752;28;20030;-63
2022/05/26 07:33:07;;;;;;;6.32;1.50;;;17.10;99.90;;;;;;5019107;28;20038;-63
2022/05/26 07:35:32;;;;;;;4.68;1.42;;;17.10;99.90;;;;;;5029800;28;20044;-63
2022/05/26 07:43:31;;;;;;;6.40;1.50;;;16.90;99.90;;;;;;5019931;28;20431;-62
2022/05/26 07:45:56;;;;;;;5.93;1.70;;;16.80;99.90;;;;;;5028959;28;20049;-63
2022/05/26 07:48:22;;;;;;;5.38;1.60;;;16.80;99.90;;;;;;5033497;28;20033;-62
2022/05/26 07:50:48;;;;;;;4.72;1.30;;;16.80;99.90;;;;;;5027077;28;20120;-64
2022/05/26 07:53:13;;;;;;;4.60;1.30;;;16.90;99.90;;;;;;5019481;28;20046;-64
2022/05/26 07:55:42;;;;;;;4.47;1.48;;;17.00;99.90;;;;;;5026768;28;20034;-64
2022/05/26 07:58:09;;;;;;;3.75;0.95;;;17.10;99.90;;;;;;5016157;28;20042;-64
2022/05/26 08:00:35;;;;;;;3.03;1.17;;;17.20;99.90;;;;;;5017061;28;20118;-64
2022/05/26 08:03:01;;;;;;;6.20;1.30;;;17.20;99.90;;;;;;5022620;28;20501;-64
2022/05/26 08:05:27;;;;;;;3.70;0.90;;;17.30;99.90;;;;;;5017417;28;20041;-64
2022/05/26 08:07:52;;;;;;;3.03;1.10;;;17.30;99.90;;;;;;5019887;28;20033;-64
2022/05/26 08:10:18;;;;;;;5.85;1.70;;;17.20;99.90;;;;;;5026436;28;20030;-64
2022/05/26 08:12:44;;;;;;;4.40;1.30;;;17.30;99.90;;;;;;5019382;28;20524;-64
2022/05/26 08:15:10;;;;;;;5.15;1.60;;;17.40;99.90;;;;;;5014897;28;20041;-64
2022/05/26 08:17:36;;;;;;;6.72;1.40;;;17.30;99.90;;;;;;5017110;28;20095;-64
2022/05/26 08:20:03;;;;;;;3.78;1.38;;;17.20;99.90;;;;;;5020965;28;20052;-62
2022/05/26 08:22:29;;;;;;;7.82;1.77;;;17.10;99.90;;;;;;5007240;28;20049;-64
2022/05/26 08:24:57;;;;;;;4.78;1.58;;;17.10;99.90;;;;;;5017044;28;20060;-63
2022/05/26 08:27:24;;;;;;;6.45;1.70;;;17.20;99.90;;;;;;5025673;28;20544;-63
2022/05/26 08:29:51;;;;;;;10.13;1.60;;;17.30;99.90;;;;;;5033103;28;20034;-64
2022/05/26 08:32:18;;;;;;;3.80;1.33;;;17.40;99.90;;;;;;5029162;28;20040;-64
2022/05/26 08:34:44;;;;;;;4.13;1.10;;;17.30;99.90;;;;;;5026191;28;20079;-64
2022/05/26 08:37:18;;;;;;;5.32;1.20;;;17.30;99.90;;;;;;5033273;28;20045;-64
2022/05/26 08:39:44;;;;;;;6.55;1.80;;;17.40;99.90;;;;;;5025722;28;20045;-64
2022/05/26 08:42:23;;;;;;;3.05;1.05;;;17.30;99.90;;;;;;5028709;28;20041;-64
2022/05/26 08:44:50;;;;;;;3.63;1.20;;;17.40;99.90;;;;;;5025271;28;20505;-64
2022/05/26 08:47:20;;;;;;;5.00;1.20;;;17.40;99.90;;;;;;5031391;28;20063;-65
2022/05/26 08:50:01;;;;;;;7.35;1.42;;;17.30;99.90;;;;;;5004148;28;20041;-64
2022/05/26 08:52:55;;;;;;;3.30;1.10;;;17.40;99.90;;;;;;5031511;28;20038;-64
2022/05/26 08:55:23;;;;;;;5.40;1.10;;;17.50;99.90;;;;;;5023160;28;20347;-64
2022/05/26 08:57:58;;;;;;;3.28;1.10;;;17.50;99.90;;;;;;5009638;28;20095;-64
2022/05/26 09:00:25;;;;;;;4.22;1.30;;;17.50;99.90;;;;;;5029991;28;20120;-64
2022/05/26 09:02:55;;;;;;;4.40;1.30;;;17.60;99.90;;;;;;5014220;28;20045;-64
2022/05/26 09:05:21;;;;;;;5.05;1.40;;;17.70;99.90;;;;;;5007178;28;20103;-65
2022/05/26 09:13:41;;;;;;;3.97;1.10;;;17.60;99.90;;;;;;5019188;28;20443;-65
2022/05/26 09:16:06;;;;;;;3.38;1.13;;;17.40;99.90;;;;;;5018660;28;20048;-64
2022/05/26 09:18:33;;;;;;;16.17;3.33;;;17.30;99.90;;;;;;5013881;28;20398;-64
2022/05/26 09:21:16;;;;;;;3.13;1.40;;;17.30;99.90;;;;;;5013504;28;20072;-64
2022/05/26 09:23:44;;;;;;;6.13;1.85;;;17.40;99.90;;;;;;5032484;28;20083;-64
2022/05/26 09:26:14;;;;;;;4.38;1.40;;;17.50;99.90;;;;;;5028977;28;20034;-65
2022/05/26 09:28:51;;;;;;;3.47;1.48;;;17.60;99.90;;;;;;5003975;28;20051;-64
2022/05/26 09:31:29;;;;;;;3.50;1.13;;;17.50;99.90;;;;;;5020576;28;20478;-64
2022/05/26 09:34:05;;;;;;;3.92;1.23;;;17.50;99.90;;;;;;5013476;28;20037;-65
2022/05/26 09:36:37;;;;;;;7.30;1.17;;;17.60;99.90;;;;;;5031680;28;20030;-64
2022/05/26 09:39:04;;;;;;;3.63;1.17;;;17.80;99.90;;;;;;5025912;28;20043;-64
2022/05/26 09:41:38;;;;;;;3.90;1.15;;;18.00;99.90;;;;;;5021387;28;20046;-63
2022/05/26 09:44:06;;;;;;;4.63;1.40;;;18.10;99.90;;;;;;5031202;28;20052;-64
2022/05/26 09:46:32;;;;;;;9.82;1.45;;;18.30;99.90;;;;;;5027853;28;20497;-62
2022/05/26 09:49:10;;;;;;;6.80;1.20;;;18.30;99.90;;;;;;5026865;28;20079;-62
2022/05/26 09:51:44;;;;;;;7.30;1.38;;;18.50;99.90;;;;;;5014169;28;20030;-62
2022/05/26 09:54:29;;;;;;;3.53;1.20;;;18.50;99.90;;;;;;5027701;28;20045;-62
2022/05/26 09:56:55;;;;;;;5.05;1.30;;;18.50;99.90;;;;;;5008969;28;20045;-62
2022/05/26 09:59:28;;;;;;;3.83;1.17;;;18.70;99.90;;;;;;5027811;28;20507;-62
2022/05/26 10:02:05;;;;;;;4.93;1.35;;;18.50;99.80;;;;;;5025787;28;20096;-62
2022/05/26 10:04:59;;;;;;;3.75;1.23;;;18.30;99.70;;;;;;5015704;28;20042;-62
2022/05/26 10:07:30;;;;;;;5.88;1.40;;;18.30;99.90;;;;;;5022997;28;20037;-62
2022/05/26 10:10:20;;;;;;;4.28;1.50;;;18.30;99.90;;;;;;5022558;28;20037;-62
2022/05/26 10:12:55;;;;;;;4.50;1.45;;;18.70;99.90;;;;;;5020252;28;20041;-62
2022/05/26 10:16:00;;;;;;;1.80;1.13;;;18.70;99.90;;;;;;5010935;28;20034;-62
2022/05/26 10:18:38;;;;;;;4.50;1.60;;;18.70;99.90;;;;;;5016491;28;20049;-62
2022/05/26 10:21:41;;;;;;;4.18;1.90;;;18.70;99.90;;;;;;5017953;28;20045;-63
2022/05/26 10:24:42;;;;;;;6.55;1.70;;;18.60;99.90;;;;;;5016933;28;20182;-63
2022/05/26 10:27:19;;;;;;;5.05;1.73;;;18.30;99.90;;;;;;4924303;29;20043;-63
2022/05/26 10:30:04;;;;;;;6.15;1.90;;;18.20;99.90;;;;;;5011875;28;20084;-63
2022/05/26 10:33:00;;;;;;;5.38;2.10;;;18.10;99.90;;;;;;5025948;28;20061;-62
2022/05/26 10:35:35;;;;;;;3.28;1.98;;;18.00;99.90;;;;;;5016787;28;20418;-63
2022/05/26 10:38:24;;;;;;;3.75;1.90;;;17.90;99.90;;;;;;5019029;28;20493;-63
2022/05/26 10:41:06;;;;;;;4.00;2.13;;;17.70;99.90;;;;;;5021751;28;20046;-63
2022/05/26 10:43:41;;;;;;;5.38;2.20;;;17.70;99.90;;;;;;5018678;28;20041;-63
2022/05/26 10:46:09;;;;;;;4.30;2.20;;;17.70;99.90;;;;;;5017087;28;20037;-63
2022/05/26 10:48:53;;;;;;;5.85;2.35;;;18.00;99.90;;;;;;5212543;23;20050;-61
2022/05/26 10:51:26;;;;;;;6.15;2.40;;;18.20;99.90;;;;;;5071873;28;20044;-62
2022/05/26 10:54:00;;;;;;;8.38;2.55;;;18.30;99.90;;;;;;5074591;28;20040;-61
2022/05/26 10:56:52;;;;;;;6.03;2.60;;;18.30;99.90;;;;;;5087982;28;20024;-62
2022/05/26 10:59:46;;;;;;;9.40;3.70;;;18.30;99.90;;;;;;5076926;28;20040;-62
2022/05/26 11:02:25;;;;;;;6.60;3.08;;;18.40;99.90;;;;;;5077330;28;20724;-61
2022/05/26 11:05:01;;;;;;;10.93;3.50;;;18.50;99.90;;;;;;5081458;28;20126;-61
2022/05/26 11:07:48;;;;;;;7.45;2.92;;;18.70;99.90;;;;;;5080598;28;20043;-61
2022/05/26 11:10:19;;;;;;;8.50;3.03;;;19.10;99.90;;;;;;5075635;28;20039;-62
2022/05/26 11:12:56;;;;;;;11.25;3.25;;;19.00;99.90;;;;;;5083318;28;20040;-62
2022/05/26 11:18:54;;;;;;;6.93;2.35;;;19.40;99.90;;;;;;5075562;28;20044;-61
2022/05/26 11:21:21;;;;;;;7.13;2.83;;;19.20;99.90;;;;;;5080114;28;20082;-62
2022/05/26 11:23:48;;;;;;;7.03;2.85;;;19.20;99.90;;;;;;5090261;28;20126;-61
2022/05/26 11:26:23;;;;;;;4.95;2.42;;;19.30;99.90;;;;;;5086911;28;20037;-62
2022/05/26 11:28:59;;;;;;;5.72;2.53;;;19.40;99.90;;;;;;5075582;28;20052;-62
2022/05/26 11:37:27;;;;;;;5.78;2.33;;;19.10;99.90;;;;;;5089034;28;20074;-62
2022/05/26 11:40:03;;;;;;;6.15;2.78;;;19.50;99.90;;;;;;5069033;28;20123;-61
2022/05/26 11:42:47;;;;;;;7.07;2.58;;;19.80;99.90;;;;;;5073232;28;20050;-61
2022/05/26 11:45:25;;;;;;;7.05;2.20;;;20.00;99.90;;;;;;5076930;28;20047;-62
2022/05/26 11:48:03;;;;;;;5.80;2.40;;;19.60;99.90;;;;;;5085408;28;20058;-61
2022/05/26 11:52:56;;;;;;;5.05;2.00;;;19.60;99.90;;;;;;5031778;28;20890;-61
2022/05/26 11:55:32;;;;;;;6.60;1.75;;;19.70;99.40;;;;;;5033443;28;20037;-61
2022/05/26 11:58:34;;;;;;;6.93;1.80;;;19.50;98.70;;;;;;5030561;28;20029;-61
2022/05/26 12:01:28;;;;;;;;;;;19.50;99.60;;;;;;5023345;28;20069;-61
2022/05/26 12:03:54;;;;;;;4.25;1.90;;;19.70;98.80;;;;;;5013141;28;19963;-61
2022/05/26 12:06:38;;;;;;;4.95;1.90;;;19.60;99.30;;;;;;5034479;28;20401;-62
2022/05/26 12:09:18;;;;;;;8.18;2.10;;;19.70;99.10;;;;;;5407601;22;20481;-62
2022/05/26 12:11:51;;;;;;;4.80;2.00;;;19.60;99.70;;;;;;5067813;28;20335;-61
2022/05/26 12:19:43;;;;;;;7.30;2.38;;;19.30;99.90;;;;;;6041370;22;20341;-62
2022/05/26 12:22:25;;;;;;;5.13;2.05;;;19.70;99.90;;;;;;5056626;28;20385;-61
2022/05/26 12:25:24;;;;;;;5.20;2.10;;;19.80;99.90;;;;;;5042751;28;20083;-61
2022/05/26 12:35:56;;;;;;;5.78;2.28;;;19.70;99.90;;;;;;5157184;22;20053;-61
2022/05/26 12:38:59;;;;;;;5.72;1.95;;;19.90;99.90;;;;;;5048754;28;20037;-61
2022/05/26 12:46:47;;;;;;;5.15;2.00;;;20.00;98.80;;;;;;5983434;22;20054;-61
2022/05/26 12:49:50;;;;;;;5.22;2.00;;;20.50;99.00;;;;;;5106350;28;20031;-61
2022/05/26 12:57:26;;;;;;;4.75;1.85;;;20.50;97.30;;;;;;5116627;22;20074;-61
2022/05/26 13:00:20;;;;;;;6.40;2.03;;;20.70;97.70;;;;;;5071002;28;20049;-61
2022/05/26 13:18:25;;;;;;;5.47;1.80;;;21.00;97.10;;;;;;5147451;22;20052;-61
2022/05/26 13:28:59;;;;;;;4.70;1.90;;;20.60;97.10;;;;;;6000812;22;20154;-61
2022/05/26 13:34:14;;;;;;;5.28;1.80;;;20.40;97.10;;;;;;5073090;28;20044;-61
2022/05/26 13:36:43;;;;;;;5.80;1.60;;;20.40;97.40;;;;;;5101412;28;20494;-62
2022/05/26 13:44:40;;;;;;;5.68;1.75;;;20.00;97.10;;;;;;5798522;22;20055;-61
2022/05/26 13:47:08;;;;;;;7.85;2.65;;;20.00;96.70;;;;;;5070570;28;20120;-61
2022/05/26 13:49:39;;;;;;;7.18;2.20;;;19.90;97.10;;;;;;5054220;28;20045;-62
2022/05/26 13:52:09;;;;;;;9.98;1.90;;;20.00;97.40;;;;;;5064981;28;20085;-61
2022/05/26 13:54:41;;;;;;;7.43;1.85;;;20.10;97.30;;;;;;5051404;28;20171;-61
2022/05/26 13:59:47;;;;;;;7.40;1.77;;;20.40;96.70;;;;;;5199472;22;20049;-62
2022/05/26 14:02:22;;;;;;;6.47;2.03;;;20.50;97.00;;;;;;5017046;28;20055;-61
2022/05/26 14:05:13;;;;;;;6.72;2.03;;;20.70;97.70;;;;;;5035380;28;20037;-62
2022/05/26 14:07:45;;;;;;;7.22;2.35;;;20.70;95.70;;;;;;5060275;28;20029;-62
2022/05/26 14:10:17;;;;;;;6.93;2.33;;;20.40;96.60;;;;;;5057852;28;20041;-62
2022/05/26 14:12:44;;;;;;;6.85;2.20;;;20.10;97.20;;;;;;5058950;28;20040;-61
2022/05/26 14:15:11;;;;;;;7.45;2.33;;;19.90;98.30;;;;;;5075802;22;20098;-62
2022/05/26 14:17:42;;;;;;;13.95;2.70;;;19.90;98.30;;;;;;5054271;28;20376;-62
2022/05/26 14:20:11;;;;;;;6.70;2.22;;;19.90;98.70;;;;;;5050853;28;20052;-62
2022/05/26 14:22:46;;;;;;;8.73;2.28;;;19.90;98.60;;;;;;5053681;28;20044;-62
2022/05/26 14:25:18;;;;;;;9.73;2.38;;;20.00;98.50;;;;;;5047348;28;20048;-62
2022/05/26 14:56:13;;;;;;;6.65;2.40;;;19.10;99.70;;;;;;5385194;22;20536;-62
2022/05/26 14:58:38;;;;;;;6.80;2.47;;;19.10;99.90;;;;;;5052164;28;20044;-62
2022/05/26 15:08:50;;;;;;;6.38;2.60;;;19.00;99.90;;;;;;5663285;22;20067;-62
2022/05/26 15:11:18;;;;;;;9.18;2.53;;;18.90;99.90;;;;;;5059110;28;20052;-61
2022/05/26 15:13:44;;;;;;;6.15;2.45;;;18.80;99.90;;;;;;5071162;28;20087;-62
2022/05/26 15:24:08;;;;;;;9.65;2.53;;;18.80;99.90;;;;;;5929882;22;20057;-63
2022/05/26 15:26:34;;;;;;;9.35;2.97;;;18.80;99.90;;;;;;5045495;28;20055;-62
2022/05/26 15:29:00;;;;;;;7.57;2.60;;;18.90;99.90;;;;;;5032331;28;20091;-63
2022/05/26 15:31:26;;;;;;;8.02;2.78;;;18.80;99.90;;;;;;5043811;28;20041;-63